createdAt,value
2017-10-19T00:00:43.826Z,54.55
2017-10-19T00:01:49.826Z,45.90
2017-10-19T00:02:56.274Z,64.47
2017-10-19T00:04:01.948Z,53.60
2017-10-19T00:05:09.735Z,63.72
2017-10-19T00:06:15.858Z,58.83
2017-10-19T00:07:21.992Z,61.15
2017-10-19T00:08:27.938Z,57.95
2017-10-19T00:09:34.118Z,54.83
2017-10-19T00:10:40.254Z,55.95
2017-10-19T00:11:46.522Z,59.83
2017-10-19T00:12:52.895Z,58.33
2017-10-19T00:14:01.790Z,59.75
2017-10-19T00:15:09.315Z,62.75
2017-10-19T00:16:16.440Z,56.10
2017-10-19T00:17:22.718Z,54.15
2017-10-19T00:18:30.778Z,52.03
2017-10-19T00:19:36.967Z,57.88
2017-10-19T00:20:43.060Z,56.22
2017-10-19T00:21:49.008Z,47.13
2017-10-19T00:22:55.181Z,47.83
2017-10-19T00:24:01.268Z,50.88
2017-10-19T00:25:07.443Z,48.67
2017-10-19T00:26:13.557Z,50.47
2017-10-19T00:27:20.461Z,55.12
2017-10-19T00:28:26.616Z,56.72
2017-10-19T00:29:32.735Z,74.97
2017-10-19T00:30:38.660Z,51.03
2017-10-19T00:31:44.746Z,56.85
2017-10-19T00:32:50.499Z,59.55
2017-10-19T00:33:56.800Z,58.13
2017-10-19T00:35:02.922Z,96.25
2017-10-19T00:36:08.843Z,103.10
2017-10-19T00:37:14.944Z,48.67
2017-10-19T00:38:20.661Z,67.75
2017-10-19T00:39:26.433Z,91.85
2017-10-19T00:40:32.536Z,55.90
2017-10-19T00:41:38.635Z,137.02
2017-10-19T00:42:44.598Z,141.73
2017-10-19T00:43:50.690Z,88.12
2017-10-19T00:44:56.881Z,124.22
2017-10-19T00:46:03.013Z,155.52
2017-10-19T00:47:09.171Z,94.87
2017-10-19T00:48:18.913Z,89.68
2017-10-19T00:49:25.121Z,107.72
2017-10-19T00:50:31.236Z,80.07
2017-10-19T00:51:37.572Z,106.18
2017-10-19T00:52:43.654Z,98.05
2017-10-19T00:53:49.376Z,123.50
2017-10-19T00:54:55.446Z,138.30
2017-10-19T00:56:01.196Z,212.27
2017-10-19T00:57:06.759Z,140.75
2017-10-19T00:58:12.073Z,64.85
2017-10-19T00:59:17.627Z,78.80
2017-10-19T01:00:22.825Z,136.82
2017-10-19T01:01:27.340Z,90.15
2017-10-19T01:02:33.078Z,127.05
2017-10-19T01:03:39.163Z,145.82
2017-10-19T01:04:45.256Z,70.80
2017-10-19T01:05:51.368Z,69.75
2017-10-19T01:06:57.450Z,71.53
2017-10-19T01:08:03.578Z,59.55
2017-10-19T01:09:09.688Z,58.38
2017-10-19T01:10:15.869Z,94.07
2017-10-19T01:11:27.033Z,95.05
2017-10-19T01:12:32.789Z,94.22
2017-10-19T01:13:38.348Z,63.53
2017-10-19T01:14:44.042Z,50.55
2017-10-19T01:15:50.652Z,66.80
2017-10-19T01:16:56.543Z,71.28
2017-10-19T01:18:03.141Z,53.13
2017-10-19T01:19:08.522Z,75.78
2017-10-19T01:20:13.880Z,108.97
2017-10-19T01:21:19.281Z,154.23
2017-10-19T01:22:24.655Z,105.97
2017-10-19T01:23:30.117Z,100.28
2017-10-19T01:24:35.184Z,83.55
2017-10-19T01:25:40.574Z,102.57
2017-10-19T01:26:45.928Z,56.67
2017-10-19T01:27:51.649Z,74.47
2017-10-19T01:28:57.074Z,93.47
2017-10-19T01:30:02.467Z,96.75
2017-10-19T01:31:07.665Z,46.63
2017-10-19T01:32:13.360Z,62.75
2017-10-19T01:33:19.065Z,47.95
2017-10-19T01:34:24.402Z,58.30
2017-10-19T01:35:30.123Z,46.33
2017-10-19T01:36:35.470Z,50.80
2017-10-19T01:37:41.302Z,50.92
2017-10-19T01:38:46.657Z,53.85
2017-10-19T01:39:52.226Z,59.95
2017-10-19T01:40:57.618Z,56.70
2017-10-19T01:42:03.961Z,62.65
2017-10-19T01:43:09.855Z,55.67
2017-10-19T01:44:15.252Z,57.35
2017-10-19T01:45:20.637Z,51.75
2017-10-19T01:46:26.381Z,49.65
2017-10-19T01:47:31.867Z,54.15
2017-10-19T01:48:37.567Z,52.10
2017-10-19T01:50:00.777Z,57.17
2017-10-19T01:51:06.172Z,55.17
2017-10-19T01:52:12.191Z,47.35
2017-10-19T01:53:18.307Z,51.50
2017-10-19T01:54:24.411Z,51.25
2017-10-19T01:55:30.150Z,50.72
2017-10-19T01:56:36.257Z,56.40
2017-10-19T01:57:44.193Z,61.10
2017-10-19T01:58:49.911Z,45.42
2017-10-19T01:59:55.965Z,46.80
2017-10-19T02:01:01.873Z,48.35
2017-10-19T02:02:08.499Z,48.60
2017-10-19T02:03:22.879Z,45.05
2017-10-19T02:04:32.923Z,49.38
2017-10-19T02:05:39.071Z,55.08
2017-10-19T02:06:44.854Z,49.15
2017-10-19T02:07:50.616Z,52.72
2017-10-19T02:08:56.334Z,52.65
2017-10-19T02:10:02.423Z,49.17
2017-10-19T02:11:08.561Z,50.63
2017-10-19T02:12:14.633Z,51.17
2017-10-19T02:13:20.774Z,56.55
2017-10-19T02:14:26.528Z,47.75
2017-10-19T02:15:31.922Z,48.05
2017-10-19T02:16:38.017Z,47.97
2017-10-19T02:17:44.104Z,45.90
2017-10-19T02:18:50.199Z,45.22
2017-10-19T02:19:55.974Z,42.17
2017-10-19T02:21:02.115Z,46.05
2017-10-19T02:22:08.546Z,46.63
2017-10-19T02:23:14.659Z,46.03
2017-10-19T02:24:20.660Z,52.33
2017-10-19T02:25:26.816Z,49.10
2017-10-19T02:26:33.002Z,47.47
2017-10-19T02:27:39.135Z,52.22
2017-10-19T02:28:45.213Z,52.33
2017-10-19T02:31:33.848Z,46.47
2017-10-19T02:32:39.947Z,44.97
2017-10-19T02:33:46.056Z,47.75
2017-10-19T02:34:55.437Z,49.20
2017-10-19T02:36:01.586Z,49.22
2017-10-19T02:37:07.699Z,51.30
2017-10-19T02:38:13.627Z,52.55
2017-10-19T02:39:19.763Z,55.92
2017-10-19T02:40:25.913Z,54.65
2017-10-19T02:41:32.029Z,49.58
2017-10-19T02:42:38.191Z,55.10
2017-10-19T02:43:44.127Z,53.85
2017-10-19T02:44:50.240Z,49.47
2017-10-19T02:45:56.379Z,54.60
2017-10-19T02:47:02.483Z,49.58
2017-10-19T02:48:08.634Z,47.83
2017-10-19T02:49:14.756Z,48.42
2017-10-19T02:50:20.896Z,47.20
2017-10-19T02:51:27.024Z,53.50
2017-10-19T02:52:32.821Z,52.25
2017-10-19T02:53:38.948Z,52.20
2017-10-19T02:54:44.695Z,64.47
2017-10-19T02:55:50.475Z,69.03
2017-10-19T02:56:59.391Z,66.22
2017-10-19T02:58:05.304Z,69.75
2017-10-19T02:59:15.770Z,70.22
2017-10-19T03:00:21.557Z,62.72
2017-10-19T03:01:27.487Z,69.05
2017-10-19T03:02:33.238Z,58.50
2017-10-19T03:03:39.341Z,60.80
2017-10-19T03:04:45.627Z,67.32
2017-10-19T03:05:51.795Z,58.90
2017-10-19T03:06:57.667Z,59.50
2017-10-19T03:08:03.602Z,58.85
2017-10-19T03:09:08.982Z,60.55
2017-10-19T03:10:15.563Z,66.10
2017-10-19T03:11:21.680Z,72.70
2017-10-19T03:12:27.809Z,72.57
2017-10-19T03:13:33.589Z,75.32
2017-10-19T03:14:39.671Z,82.28
2017-10-19T03:15:45.788Z,73.62
2017-10-19T03:16:51.872Z,79.35
2017-10-19T03:17:58.112Z,61.53
2017-10-19T03:19:04.194Z,67.97
2017-10-19T03:20:10.318Z,69.12
2017-10-19T03:21:16.464Z,60.35
2017-10-19T03:22:22.583Z,61.92
2017-10-19T03:23:28.707Z,56.67
2017-10-19T03:24:34.807Z,59.47
2017-10-19T03:25:40.786Z,54.35
2017-10-19T03:26:46.902Z,53.10
2017-10-19T03:27:52.986Z,49.83
2017-10-19T03:28:59.079Z,54.05
2017-10-19T03:30:05.178Z,58.42
2017-10-19T03:31:11.324Z,54.85
2017-10-19T03:32:17.404Z,62.28
2017-10-19T03:33:23.503Z,61.37
2017-10-19T03:34:29.278Z,58.58
2017-10-19T03:35:35.029Z,58.17
2017-10-19T03:36:41.673Z,48.97
2017-10-19T03:44:40.081Z,57.30
2017-10-19T03:46:05.165Z,53.55
2017-10-19T03:47:25.267Z,52.72
2017-10-19T03:48:48.143Z,45.47
2017-10-19T03:50:11.325Z,48.15
2017-10-19T03:51:21.717Z,52.80
2017-10-19T03:52:28.722Z,52.15
2017-10-19T03:53:36.268Z,47.05
2017-10-19T03:54:42.403Z,47.60
2017-10-19T03:55:48.614Z,47.95
2017-10-19T03:56:55.258Z,50.22
2017-10-19T03:58:01.427Z,54.05
2017-10-19T03:59:07.701Z,50.72
2017-10-19T04:00:13.332Z,54.95
2017-10-19T04:01:22.715Z,54.67
2017-10-19T04:02:28.930Z,49.60
2017-10-19T04:03:35.117Z,47.50
2017-10-19T04:04:47.442Z,49.67
2017-10-19T04:05:58.664Z,48.38
2017-10-19T04:07:04.859Z,48.45
2017-10-19T04:08:10.967Z,48.13
2017-10-19T04:09:17.756Z,53.42
2017-10-19T04:10:23.881Z,50.70
2017-10-19T04:11:30.035Z,45.92
2017-10-19T04:12:36.271Z,57.20
2017-10-19T04:13:42.399Z,49.95
2017-10-19T04:14:48.334Z,54.97
2017-10-19T04:15:54.452Z,55.60
2017-10-19T04:17:00.636Z,48.60
2017-10-19T04:18:06.722Z,54.05
2017-10-19T04:19:12.922Z,52.53
2017-10-19T04:20:19.082Z,54.10
2017-10-19T04:21:25.263Z,48.80
2017-10-19T04:22:31.461Z,50.65
2017-10-19T04:23:38.898Z,55.38
2017-10-19T04:24:46.711Z,60.90
2017-10-19T04:25:54.609Z,53.87
2017-10-19T04:27:04.443Z,48.22
2017-10-19T04:28:10.834Z,48.10
2017-10-19T04:29:16.943Z,52.38
2017-10-19T04:30:24.164Z,46.65
2017-10-19T04:31:34.181Z,50.90
2017-10-19T04:32:46.477Z,47.72
2017-10-19T04:33:58.995Z,42.97
2017-10-19T04:35:11.904Z,45.55
2017-10-19T04:36:19.140Z,42.40
2017-10-19T04:37:30.382Z,48.15
2017-10-19T04:38:39.692Z,44.53
2017-10-19T04:39:52.488Z,43.20
2017-10-19T04:41:14.043Z,42.58
2017-10-19T04:42:28.140Z,47.90
2017-10-19T04:43:38.840Z,44.72
2017-10-19T04:44:52.877Z,53.58
2017-10-19T04:46:01.899Z,51.70
2017-10-19T04:47:25.222Z,52.95
2017-10-19T04:51:10.080Z,41.58
2017-10-19T04:52:20.669Z,46.15
2017-10-19T04:53:27.567Z,47.40
2017-10-19T04:54:36.023Z,48.47
2017-10-19T04:55:43.393Z,43.50
2017-10-19T04:56:51.022Z,44.60
2017-10-19T05:03:30.306Z,39.97
2017-10-19T05:04:39.762Z,41.25
2017-10-19T05:05:56.236Z,47.67
2017-10-19T05:07:06.623Z,49.05
2017-10-19T05:14:09.412Z,49.08
2017-10-19T05:15:29.436Z,41.08
2017-10-19T05:16:47.494Z,51.80
2017-10-19T05:21:44.898Z,47.80
2017-10-19T05:22:58.497Z,50.00
2017-10-19T05:24:45.923Z,47.85
2017-10-19T05:26:08.226Z,44.67
2017-10-19T06:17:17.297Z,50.50
2017-10-19T06:21:00.324Z,79.78
2017-10-19T06:22:09.382Z,75.28
2017-10-19T06:23:20.423Z,74.57
2017-10-19T06:24:39.888Z,77.47
2017-10-19T06:25:49.087Z,77.12
2017-10-19T06:26:58.165Z,71.03
2017-10-19T06:28:08.499Z,75.05
2017-10-19T06:29:18.367Z,64.12
2017-10-19T06:30:27.427Z,68.75
2017-10-19T06:31:33.647Z,65.25
2017-10-19T06:32:45.299Z,59.97
2017-10-19T06:33:53.474Z,62.17
2017-10-19T06:35:00.619Z,67.00
2017-10-19T06:36:10.265Z,68.57
2017-10-19T06:37:17.918Z,64.75
2017-10-19T06:38:24.310Z,73.45
2017-10-19T06:39:31.670Z,65.75
2017-10-19T06:40:39.489Z,49.97
2017-10-19T06:41:46.403Z,49.00
2017-10-19T06:42:52.705Z,48.42
2017-10-19T06:44:01.088Z,49.67
2017-10-19T06:45:08.726Z,49.20
2017-10-19T06:46:15.786Z,52.95
2017-10-19T06:47:23.337Z,58.08
2017-10-19T06:48:31.176Z,51.80
2017-10-19T06:49:37.351Z,51.45
2017-10-19T06:50:44.690Z,59.55
2017-10-19T06:51:51.952Z,57.58
2017-10-19T06:52:58.944Z,62.53
2017-10-19T06:54:06.277Z,65.22
2017-10-19T06:55:13.369Z,54.35
2017-10-19T06:56:20.252Z,52.95
2017-10-19T06:57:27.359Z,54.20
2017-10-19T06:58:33.994Z,53.90
2017-10-19T06:59:40.936Z,56.78
2017-10-19T07:00:47.316Z,50.20
2017-10-19T07:01:53.765Z,57.13
2017-10-19T07:03:00.073Z,53.20
2017-10-19T07:04:07.683Z,55.45
2017-10-19T07:05:14.057Z,55.10
2017-10-19T07:06:20.205Z,54.60
2017-10-19T07:07:26.525Z,54.55
2017-10-19T07:08:32.739Z,55.15
2017-10-19T07:09:39.260Z,49.45
2017-10-19T07:10:45.433Z,55.70
2017-10-19T07:11:51.657Z,63.92
2017-10-19T07:12:57.901Z,57.03
2017-10-19T07:14:04.133Z,71.95
2017-10-19T07:15:10.403Z,58.92
2017-10-19T07:16:16.554Z,51.55
2017-10-19T07:17:22.556Z,49.15
2017-10-19T07:18:28.910Z,53.78
2017-10-19T07:19:35.950Z,53.28
2017-10-19T07:20:42.368Z,45.67
2017-10-19T07:21:48.679Z,52.72
2017-10-19T07:22:54.895Z,57.15
2017-10-19T07:24:01.192Z,50.30
2017-10-19T07:25:07.412Z,74.93
2017-10-19T07:26:13.418Z,76.37
2017-10-19T07:27:19.852Z,72.53
2017-10-19T07:28:26.133Z,66.20
2017-10-19T07:29:32.321Z,69.90
2017-10-19T07:30:38.561Z,65.12
2017-10-19T07:31:44.871Z,59.72
2017-10-19T07:32:50.665Z,59.83
2017-10-19T07:33:56.565Z,57.03
2017-10-19T07:35:03.251Z,62.38
2017-10-19T07:36:09.680Z,55.53
2017-10-19T07:37:15.857Z,51.90
2017-10-19T07:38:22.159Z,57.28
2017-10-19T07:39:27.923Z,53.08
2017-10-19T07:40:34.193Z,53.00
2017-10-19T07:41:40.513Z,52.15
2017-10-19T07:42:46.763Z,49.53
2017-10-19T07:43:53.572Z,59.15
2017-10-19T07:44:59.795Z,52.62
2017-10-19T07:46:06.210Z,54.85
2017-10-19T07:47:12.425Z,52.38
2017-10-19T07:48:19.140Z,50.20
2017-10-19T07:49:25.565Z,49.30
2017-10-19T07:50:31.735Z,58.28
2017-10-19T07:51:38.075Z,53.75
2017-10-19T07:52:44.765Z,56.63
2017-10-19T07:53:50.999Z,49.83
2017-10-19T07:54:57.256Z,49.28
2017-10-19T07:56:03.644Z,50.22
2017-10-19T07:57:09.854Z,47.55
2017-10-19T07:58:16.975Z,45.40
2017-10-19T07:59:28.919Z,47.35
2017-10-19T08:00:36.151Z,52.50
2017-10-19T08:01:47.682Z,50.47
2017-10-19T08:03:08.840Z,45.65
2017-10-19T08:07:44.681Z,43.07
2017-10-19T08:09:10.446Z,39.05
2017-10-19T08:54:59.483Z,35.15
2017-10-19T08:56:35.088Z,35.80
2017-10-19T11:04:47.639Z,13.65
2017-10-19T11:06:21.375Z,13.57
2017-10-19T11:07:27.705Z,14.70
2017-10-19T11:09:09.206Z,12.73
2017-10-19T11:10:26.736Z,13.25
2017-10-19T11:11:45.236Z,13.25
2017-10-19T11:13:07.680Z,14.05
2017-10-19T11:14:21.550Z,12.60
2017-10-19T11:46:01.022Z,14.63
2017-10-19T11:47:08.049Z,12.90
2017-10-19T11:48:15.124Z,12.15
2017-10-19T11:49:22.341Z,14.18
2017-10-19T11:50:29.549Z,12.57
2017-10-19T11:51:36.752Z,13.00
2017-10-19T11:52:43.868Z,11.40
2017-10-19T11:53:50.907Z,13.25
2017-10-19T11:54:58.177Z,12.23
2017-10-19T11:56:05.302Z,11.55
2017-10-19T11:57:12.391Z,12.27
2017-10-19T11:58:19.743Z,12.20
2017-10-19T11:59:26.744Z,12.45
2017-10-19T12:00:33.838Z,10.60
2017-10-19T12:01:40.984Z,12.90
2017-10-19T12:02:48.163Z,11.77
2017-10-19T12:03:55.370Z,11.25
2017-10-19T12:05:04.229Z,11.35
2017-10-19T12:06:13.678Z,10.80
2017-10-19T12:07:20.871Z,11.27
2017-10-19T12:08:28.048Z,10.50
2017-10-19T12:09:35.273Z,11.00
2017-10-19T12:10:44.818Z,10.88
2017-10-19T12:11:51.829Z,10.40
2017-10-19T12:12:58.943Z,12.30
2017-10-19T12:14:06.172Z,10.13
2017-10-19T12:15:15.112Z,9.80
2017-10-19T12:16:22.052Z,8.73
2017-10-19T12:17:28.984Z,8.15
2017-10-19T12:18:36.081Z,8.77
2017-10-19T12:19:43.229Z,9.48
2017-10-19T12:20:50.365Z,7.32
2017-10-19T12:21:57.507Z,7.47
2017-10-19T12:23:04.505Z,6.90
2017-10-19T12:24:11.841Z,7.95
2017-10-19T12:25:18.963Z,9.90
2017-10-19T12:26:26.429Z,7.72
2017-10-19T12:27:34.910Z,8.52
2017-10-19T12:28:42.214Z,7.03
2017-10-19T12:29:49.147Z,7.70
2017-10-19T12:30:56.304Z,6.65
2017-10-19T12:32:03.854Z,6.55
2017-10-19T12:33:12.112Z,6.25
2017-10-19T12:34:20.726Z,7.20
2017-10-19T12:35:31.264Z,6.43
2017-10-19T12:36:38.560Z,5.75
2017-10-19T12:37:46.731Z,6.10
2017-10-19T12:38:56.653Z,9.07
2017-10-19T12:40:04.050Z,6.60
2017-10-19T12:41:11.690Z,6.25
2017-10-19T12:42:20.563Z,6.78
2017-10-19T12:43:28.303Z,6.07
2017-10-19T12:44:36.196Z,7.60
2017-10-19T12:45:46.600Z,6.25
2017-10-19T12:46:56.501Z,6.25
2017-10-19T12:48:04.140Z,8.75
2017-10-19T12:49:12.249Z,6.75
2017-10-19T12:50:19.091Z,5.50
2017-10-19T12:51:28.712Z,6.07
2017-10-19T12:52:36.510Z,6.90
2017-10-19T12:53:45.537Z,6.18
2017-10-19T12:54:53.368Z,5.50
2017-10-19T12:56:04.919Z,6.10
2017-10-19T12:57:12.174Z,7.70
2017-10-19T12:58:20.792Z,6.50
2017-10-19T12:59:27.573Z,7.00
2017-10-19T13:00:34.991Z,5.75
2017-10-19T13:01:41.210Z,7.87
2017-10-19T13:02:47.289Z,8.37
2017-10-19T13:03:55.366Z,5.43
2017-10-19T13:05:02.253Z,6.30
2017-10-19T13:07:26.070Z,7.33
2017-10-19T13:08:32.424Z,6.47
2017-10-19T13:09:38.921Z,6.53
2017-10-19T13:10:50.634Z,6.93
2017-10-19T13:11:57.899Z,5.97
2017-10-19T13:13:05.496Z,6.00
2017-10-19T13:14:14.161Z,6.17
2017-10-19T13:15:22.147Z,5.83
2017-10-19T13:16:29.685Z,5.70
2017-10-19T13:17:35.927Z,9.00
2017-10-19T13:18:42.383Z,5.57
2017-10-19T13:19:48.844Z,6.90
2017-10-19T13:20:55.614Z,5.37
2017-10-19T13:22:03.516Z,6.77
2017-10-19T13:23:11.367Z,5.67
2017-10-19T13:24:18.901Z,5.93
2017-10-19T13:25:26.917Z,5.87
2017-10-19T13:26:38.254Z,6.27
2017-10-19T13:27:44.074Z,6.53
2017-10-19T13:28:53.361Z,5.77
2017-10-19T13:30:00.140Z,7.00
2017-10-19T13:31:07.994Z,6.37
2017-10-19T13:32:14.517Z,9.70
2017-10-19T13:33:22.834Z,5.27
2017-10-19T13:34:31.017Z,5.30
2017-10-19T13:35:38.123Z,6.60
2017-10-19T13:36:48.338Z,5.80
2017-10-19T13:37:54.667Z,5.10
2017-10-19T13:39:00.764Z,5.40
2017-10-19T13:40:06.982Z,5.93
2017-10-19T13:41:13.020Z,6.13
2017-10-19T13:42:19.385Z,5.37
2017-10-19T13:43:28.992Z,6.18
2017-10-19T13:44:35.718Z,6.25
2017-10-19T13:45:42.036Z,5.67
2017-10-19T13:46:48.605Z,5.53
2017-10-19T13:47:55.654Z,5.25
2017-10-19T13:49:02.301Z,4.65
2017-10-19T13:50:08.400Z,5.93
2017-10-19T13:51:17.103Z,5.40
2017-10-19T13:52:23.314Z,4.65
2017-10-19T13:53:29.446Z,4.90
2017-10-19T13:54:36.571Z,8.33
2017-10-19T13:55:44.745Z,6.10
2017-10-19T13:56:51.371Z,5.60
2017-10-19T13:57:57.797Z,6.07
2017-10-19T13:59:03.729Z,5.87
2017-10-19T14:00:10.108Z,5.47
2017-10-19T14:01:16.171Z,5.03
2017-10-19T14:02:22.645Z,5.80
2017-10-19T14:03:29.046Z,5.23
2017-10-19T14:04:34.791Z,5.37
2017-10-19T14:05:40.921Z,4.90
2017-10-19T14:06:47.324Z,5.17
2017-10-19T14:07:53.598Z,5.70
2017-10-19T14:08:59.550Z,6.07
2017-10-19T14:10:05.818Z,5.40
2017-10-19T14:11:13.031Z,5.70
2017-10-19T14:12:20.055Z,6.60
2017-10-19T14:13:27.511Z,8.27
2017-10-19T14:14:34.887Z,5.70
2017-10-19T14:15:41.313Z,6.00
2017-10-19T14:16:47.370Z,4.87
2017-10-19T14:17:53.287Z,4.63
2017-10-19T14:19:01.505Z,6.20
2017-10-19T14:20:07.756Z,7.10
2017-10-19T14:21:14.380Z,4.87
2017-10-19T14:22:20.743Z,7.20
2017-10-19T14:23:27.665Z,5.80
2017-10-19T14:24:34.006Z,6.60
2017-10-19T14:25:40.072Z,7.77
2017-10-19T14:26:46.095Z,8.40
2017-10-19T14:27:52.143Z,5.13
2017-10-19T14:28:58.324Z,5.70
2017-10-19T14:30:05.576Z,6.00
2017-10-19T14:31:11.280Z,6.03
2017-10-19T14:32:18.230Z,12.03
2017-10-19T14:33:24.745Z,5.60
2017-10-19T14:34:30.938Z,6.23
2017-10-19T14:35:37.067Z,6.40
2017-10-19T14:36:43.146Z,5.90
2017-10-19T14:37:48.953Z,5.43
2017-10-19T14:38:54.917Z,5.67
2017-10-19T14:40:01.151Z,5.10
2017-10-19T14:41:07.081Z,6.37
2017-10-19T14:42:13.072Z,5.63
2017-10-19T14:43:20.409Z,5.50
2017-10-19T14:44:30.559Z,5.87
2017-10-19T14:45:36.818Z,5.90
2017-10-19T14:46:43.277Z,6.17
2017-10-19T14:47:50.057Z,5.83
2017-10-19T14:48:56.523Z,5.93
2017-10-19T14:50:02.213Z,7.20
2017-10-19T14:51:08.430Z,5.87
2017-10-19T14:52:14.679Z,6.57
2017-10-19T14:53:26.960Z,7.53
2017-10-19T14:54:33.961Z,4.97
2017-10-19T14:55:41.321Z,5.80
2017-10-19T14:56:51.065Z,5.10
2017-10-19T14:58:26.145Z,5.43
2017-10-19T16:23:06.164Z,8.60
2017-10-19T16:24:20.538Z,8.07
2017-10-19T16:25:36.353Z,7.97
2017-10-19T16:26:47.249Z,9.43
2017-10-19T16:28:02.668Z,16.60
2017-10-19T16:29:19.043Z,10.38
2017-10-19T16:30:33.307Z,8.90
2017-10-19T16:31:48.015Z,8.20
2017-10-19T16:32:57.183Z,10.95
2017-10-19T16:34:08.625Z,8.00
2017-10-19T16:35:17.325Z,10.95
2017-10-19T16:36:30.148Z,9.10
2017-10-19T16:37:52.189Z,8.52
2017-10-19T16:39:13.665Z,8.27
2017-10-19T16:40:23.593Z,9.48
2017-10-19T16:41:33.033Z,9.80
2017-10-19T16:44:02.466Z,9.82
2017-10-19T16:45:35.022Z,9.52
2017-10-19T16:46:41.341Z,8.38
2017-10-19T16:49:32.857Z,9.45
2017-10-19T16:50:41.422Z,11.15
2017-10-19T16:51:48.355Z,8.15
2017-10-19T16:52:58.208Z,8.27
2017-10-19T16:54:09.471Z,8.10
2017-10-19T16:55:20.062Z,8.10
2017-10-19T16:56:32.419Z,8.60
2017-10-19T16:57:47.954Z,8.05
2017-10-19T17:06:54.055Z,7.28
2017-10-19T17:08:09.905Z,8.63
2017-10-19T17:09:30.178Z,9.32
2017-10-19T17:12:39.168Z,9.20
2017-10-19T20:57:08.994Z,15.02
2017-10-19T20:58:15.440Z,12.13
2017-10-19T20:59:22.255Z,11.43
2017-10-19T21:00:28.475Z,10.13
2017-10-19T21:01:35.392Z,13.70
2017-10-19T21:02:43.545Z,11.25
2017-10-19T21:03:51.026Z,11.02
2017-10-19T21:04:57.941Z,20.20
2017-10-19T21:06:04.649Z,21.15
2017-10-19T21:07:12.578Z,10.68
2017-10-19T21:08:19.127Z,11.65
2017-10-19T21:09:25.614Z,13.13
2017-10-19T21:10:33.290Z,15.07
2017-10-19T21:11:40.828Z,14.85
2017-10-19T21:14:02.533Z,9.77
2017-10-19T21:15:10.283Z,13.07
2017-10-19T21:16:20.475Z,13.13
2017-10-19T21:17:29.134Z,11.07
2017-10-19T21:18:35.453Z,11.50
2017-10-19T21:19:43.021Z,10.55
2017-10-19T21:20:52.897Z,10.70
2017-10-19T21:22:00.219Z,10.18
2017-10-19T21:23:07.693Z,11.38
2017-10-19T21:24:15.707Z,11.32
2017-10-19T21:25:22.080Z,10.18
2017-10-19T21:26:30.129Z,13.68
2017-10-19T21:31:47.462Z,14.18
2017-10-19T21:32:53.868Z,9.77
2017-10-19T21:34:00.856Z,12.18
2017-10-19T21:38:32.500Z,10.73
2017-10-19T21:39:40.355Z,11.57
2017-10-19T21:40:46.760Z,12.13
2017-10-19T21:41:54.027Z,10.90
2017-10-19T21:43:01.753Z,9.93
2017-10-19T21:44:09.321Z,9.98
2017-10-19T21:45:16.593Z,11.12
2017-10-19T21:46:24.053Z,11.95
2017-10-19T21:47:30.590Z,11.85
2017-10-19T21:48:36.979Z,9.70
2017-10-19T21:49:44.424Z,14.10
2017-10-19T21:50:52.885Z,10.80
2017-10-19T21:51:59.901Z,10.57
2017-10-19T21:53:06.228Z,11.57
2017-10-19T21:54:13.054Z,10.98
2017-10-19T21:55:19.481Z,10.77
2017-10-19T21:56:27.319Z,10.98
2017-10-19T21:57:34.488Z,11.90
2017-10-19T21:58:41.878Z,10.60
2017-10-19T21:59:48.526Z,10.88
2017-10-19T22:00:54.409Z,10.57
2017-10-19T22:02:01.647Z,10.30
2017-10-19T22:03:07.653Z,9.60
2017-10-19T22:04:14.684Z,13.60
2017-10-19T22:05:21.790Z,11.10
2017-10-19T22:06:29.338Z,12.13
2017-10-19T22:07:36.673Z,14.10
2017-10-19T22:08:43.492Z,11.85
2017-10-19T22:09:49.798Z,11.12
2017-10-19T22:10:56.948Z,12.65
2017-10-19T22:12:03.891Z,12.52
2017-10-19T22:13:14.653Z,10.80
2017-10-19T22:14:21.815Z,11.18
2017-10-19T22:15:30.778Z,11.95
2017-10-19T22:16:40.099Z,10.98
2017-10-19T22:17:53.113Z,12.37
2017-10-19T22:19:01.478Z,12.45
2017-10-19T22:20:09.527Z,10.60
2017-10-19T22:21:19.576Z,11.30
2017-10-19T22:22:25.942Z,11.35
2017-10-19T22:23:32.250Z,13.48
2017-10-19T22:24:39.534Z,11.85
2017-10-19T22:26:57.440Z,11.12
2017-10-19T22:28:04.661Z,10.88
2017-10-19T22:29:12.712Z,12.90
2017-10-19T22:30:22.230Z,11.77
2017-10-19T22:31:29.738Z,10.75
2017-10-19T22:32:36.037Z,10.77
2017-10-19T22:33:43.388Z,10.65
2017-10-19T22:34:51.084Z,13.00
2017-10-19T22:35:58.240Z,11.35
2017-10-19T22:37:05.281Z,11.95
2017-10-19T22:38:15.389Z,11.88
2017-10-19T22:39:21.975Z,14.15
2017-10-19T22:40:29.846Z,12.35
2017-10-19T22:41:36.367Z,12.65
2017-10-19T22:42:42.696Z,10.90
2017-10-19T22:43:49.303Z,12.40
2017-10-19T22:44:55.815Z,11.48
2017-10-19T22:46:02.230Z,13.00
2017-10-19T22:47:08.560Z,13.93
2017-10-19T22:48:14.852Z,11.57
2017-10-19T22:49:21.479Z,14.27
2017-10-19T22:50:27.886Z,12.95
2017-10-19T22:51:34.096Z,12.37
2017-10-19T22:52:40.307Z,11.90
2017-10-19T22:53:47.551Z,12.23
2017-10-19T22:54:54.882Z,12.00
2017-10-19T22:56:02.105Z,13.07
2017-10-19T22:57:11.406Z,14.43
2017-10-19T22:58:18.412Z,12.65
2017-10-19T22:59:24.733Z,12.65
2017-10-19T23:00:31.478Z,12.32
2017-10-19T23:01:37.572Z,13.02
2017-10-19T23:02:46.102Z,12.35
2017-10-19T23:03:53.971Z,15.15
2017-10-19T23:05:01.316Z,12.82
2017-10-19T23:06:08.125Z,14.13
2017-10-19T23:07:14.653Z,15.02
2017-10-19T23:08:21.192Z,13.73
2017-10-19T23:09:28.494Z,14.13
2017-10-19T23:10:36.508Z,12.82
2017-10-19T23:11:44.901Z,14.02
2017-10-19T23:12:53.575Z,13.65
2017-10-19T23:13:59.983Z,14.30
2017-10-19T23:15:06.205Z,13.62
2017-10-19T23:17:54.973Z,15.10
2017-10-19T23:19:01.135Z,13.50
2017-10-19T23:20:07.315Z,12.68
2017-10-19T23:21:13.479Z,11.20
2017-10-19T23:22:19.454Z,13.73
2017-10-19T23:23:25.473Z,14.93
2017-10-19T23:24:31.649Z,12.23
2017-10-19T23:25:38.642Z,11.93
2017-10-19T23:26:44.897Z,13.77
2017-10-19T23:27:51.087Z,12.43
2017-10-19T23:28:57.248Z,12.50
2017-10-19T23:30:04.502Z,13.52
2017-10-19T23:31:11.317Z,11.93
2017-10-19T23:32:17.550Z,11.30
2017-10-19T23:33:23.896Z,16.20
2017-10-19T23:34:30.098Z,12.45
2017-10-19T23:35:36.403Z,12.88
2017-10-19T23:36:42.605Z,17.45
2017-10-19T23:37:48.766Z,11.77
2017-10-19T23:38:55.043Z,15.55
2017-10-19T23:40:01.271Z,12.18
2017-10-19T23:41:07.475Z,16.77
2017-10-19T23:42:13.570Z,11.73
2017-10-19T23:43:19.786Z,11.32
2017-10-19T23:44:26.385Z,13.18
2017-10-19T23:45:32.796Z,13.38
2017-10-19T23:46:39.833Z,13.55
2017-10-19T23:47:47.562Z,14.13
2017-10-19T23:48:54.581Z,11.70
2017-10-19T23:50:01.885Z,14.80
2017-10-19T23:51:08.551Z,12.68
2017-10-19T23:52:14.802Z,13.18
2017-10-19T23:53:21.105Z,13.52
2017-10-19T23:54:27.322Z,12.25
2017-10-19T23:55:33.519Z,13.57
2017-10-19T23:56:40.321Z,14.85
2017-10-19T23:57:46.526Z,12.20
2017-10-19T23:58:53.448Z,13.65
2017-10-19T23:59:59.835Z,15.77
